CheckWX is a tool to help pilots better visualize weather data.  It is not intended as a substitute for an official pre-flight weather briefing.

09:40:30 UTC

KHFF METAR
Mackall AAF Airport
Camp Mackall, North Carolina, USA
Current

45 mins ago

KHFF 310856Z AUTO 03006KT 10SM FEW100 21/14 A2999 RMK AO2 SLP168 T02060141 51006 $
Observed
May-31 @ 08:56 UTC
Wind
  • 030° at 6 KTS
Visibility
Flight Rules
VFR
Cloud Levels
  • Few at 10,000' AGL
Temperature
21°C / 70°F
Dewpoint
14°C / 57°F
Humidity
64%
Altimeter
29.99" Hg
Pressure
1015.62 hPa
Previous

2 hours ago

KHFF 310756Z AUTO 01006KT 10SM BKN070 BKN100 20/17 A2999 RMK AO2 SLP168 T02040171 $
Observed
May-31 @ 07:56 UTC
Wind
  • 010° at 6 KTS
Visibility
Flight Rules
VFR
Cloud Levels
  • Broken at 7,000' AGL
  • Broken at 10,000' AGL
Temperature
20°C / 68°F
Dewpoint
17°C / 63°F
Humidity
83%
Altimeter
29.99" Hg
Pressure
1015.62 hPa
Previous

3 hours ago

KHFF 310656Z AUTO 00000KT 10SM BKN070 21/20 A2998 RMK AO2 SLP165 T02050196 $
Observed
May-31 @ 06:56 UTC
Visibility
Flight Rules
VFR
Cloud Levels
  • Broken at 7,000' AGL
Temperature
20°C / 68°F
Dewpoint
20°C / 68°F
Humidity
100%
Altimeter
29.98" Hg
Pressure
1015.22 hPa